US Aviators Van Nuys Flight School Los Angeles Pilot school at Van Nuys Simulator Flight Training Profesional Pilot Instruction Learn to Fly

U.S. Aviators

Learn to fly here! (818) 779-2105

Weather at Van Nuys Airport

Observed:Wed Mar 4, 02:51 PST
Age:19 min ago
Wind:Calm
Visibility:10 miles
Clouds:Clear skies
Temperature:46°F (8°C)
Dewpoint:39°F (4°C)
Humidity:76%
Barometer:1015 hPa (29.97 in Hg)

METAR

KVNY 041051Z 00000KT 10SM CLR 08/04 A2997 RMK AO2 SLP146 T00780039